sensor_id;sensor_type;location;lat;lon;timestamp;temperature;humidity
38464;DHT22;24243;51.956;5.902;2023-04-21T00:02:06;19.10;45.70
38464;DHT22;24243;51.956;5.902;2023-04-21T00:04:32;19.10;45.70
38464;DHT22;24243;51.956;5.902;2023-04-21T00:06:57;19.10;45.70
38464;DHT22;24243;51.956;5.902;2023-04-21T00:09:28;19.10;45.80
38464;DHT22;24243;51.956;5.902;2023-04-21T00:11:55;19.10;45.80
38464;DHT22;24243;51.956;5.902;2023-04-21T00:14:20;19.10;45.80
38464;DHT22;24243;51.956;5.902;2023-04-21T00:16:46;19.10;45.80
38464;DHT22;24243;51.956;5.902;2023-04-21T00:19:17;19.10;45.80
38464;DHT22;24243;51.956;5.902;2023-04-21T00:21:44;19.10;45.80
38464;DHT22;24243;51.956;5.902;2023-04-21T00:24:10;19.10;45.80
38464;DHT22;24243;51.956;5.902;2023-04-21T00:26:36;19.10;45.90
38464;DHT22;24243;51.956;5.902;2023-04-21T00:29:02;19.10;45.90
38464;DHT22;24243;51.956;5.902;2023-04-21T00:31:28;19.10;45.90
38464;DHT22;24243;51.956;5.902;2023-04-21T00:33:54;19.00;45.80
38464;DHT22;24243;51.956;5.902;2023-04-21T00:36:20;19.10;45.90
38464;DHT22;24243;51.956;5.902;2023-04-21T00:38:46;19.00;45.90
38464;DHT22;24243;51.956;5.902;2023-04-21T00:41:12;19.00;45.90
38464;DHT22;24243;51.956;5.902;2023-04-21T00:44:02;19.00;45.90
38464;DHT22;24243;51.956;5.902;2023-04-21T00:46:28;19.00;45.90
38464;DHT22;24243;51.956;5.902;2023-04-21T00:48:54;19.00;45.90
38464;DHT22;24243;51.956;5.902;2023-04-21T00:51:20;19.00;45.90
38464;DHT22;24243;51.956;5.902;2023-04-21T00:53:46;19.00;45.90
38464;DHT22;24243;51.956;5.902;2023-04-21T00:56:12;19.00;46.00
38464;DHT22;24243;51.956;5.902;2023-04-21T00:58:41;19.00;46.00
38464;DHT22;24243;51.956;5.902;2023-04-21T01:01:07;19.00;46.00
38464;DHT22;24243;51.956;5.902;2023-04-21T01:03:33;19.00;46.00
38464;DHT22;24243;51.956;5.902;2023-04-21T01:05:59;19.00;46.00
38464;DHT22;24243;51.956;5.902;2023-04-21T01:08:25;19.00;46.00
38464;DHT22;24243;51.956;5.902;2023-04-21T01:10:51;19.00;46.10
38464;DHT22;24243;51.956;5.902;2023-04-21T01:13:20;19.00;46.00
38464;DHT22;24243;51.956;5.902;2023-04-21T01:15:47;18.90;46.00
38464;DHT22;24243;51.956;5.902;2023-04-21T01:18:13;19.00;46.10
38464;DHT22;24243;51.956;5.902;2023-04-21T01:20:39;19.00;46.10
38464;DHT22;24243;51.956;5.902;2023-04-21T01:23:05;19.00;46.10
38464;DHT22;24243;51.956;5.902;2023-04-21T01:25:32;18.90;46.10
38464;DHT22;24243;51.956;5.902;2023-04-21T01:27:57;18.90;46.10
38464;DHT22;24243;51.956;5.902;2023-04-21T01:30:23;18.90;46.10
38464;DHT22;24243;51.956;5.902;2023-04-21T01:32:49;18.90;46.10
38464;DHT22;24243;51.956;5.902;2023-04-21T01:35:15;18.90;46.10
38464;DHT22;24243;51.956;5.902;2023-04-21T01:37:40;18.90;46.10
38464;DHT22;24243;51.956;5.902;2023-04-21T01:40:07;18.90;46.10
38464;DHT22;24243;51.956;5.902;2023-04-21T01:42:36;18.90;46.10
38464;DHT22;24243;51.956;5.902;2023-04-21T01:45:03;18.90;46.20
38464;DHT22;24243;51.956;5.902;2023-04-21T01:47:29;18.90;46.10
38464;DHT22;24243;51.956;5.902;2023-04-21T01:49:54;18.90;46.20
38464;DHT22;24243;51.956;5.902;2023-04-21T01:52:20;18.90;46.20
38464;DHT22;24243;51.956;5.902;2023-04-21T01:54:46;18.90;46.20
38464;DHT22;24243;51.956;5.902;2023-04-21T01:57:12;18.90;46.20
38464;DHT22;24243;51.956;5.902;2023-04-21T01:59:37;18.90;46.20
38464;DHT22;24243;51.956;5.902;2023-04-21T02:02:03;18.90;46.20
38464;DHT22;24243;51.956;5.902;2023-04-21T02:04:29;18.90;46.20
38464;DHT22;24243;51.956;5.902;2023-04-21T02:06:55;18.90;46.20
38464;DHT22;24243;51.956;5.902;2023-04-21T02:09:21;18.90;46.30
38464;DHT22;24243;51.956;5.902;2023-04-21T02:11:47;18.90;46.20
38464;DHT22;24243;51.956;5.902;2023-04-21T02:14:12;18.90;46.30
38464;DHT22;24243;51.956;5.902;2023-04-21T02:16:38;18.90;46.30
38464;DHT22;24243;51.956;5.902;2023-04-21T02:19:04;18.90;46.30
38464;DHT22;24243;51.956;5.902;2023-04-21T02:21:30;18.90;46.30
38464;DHT22;24243;51.956;5.902;2023-04-21T02:23:57;18.90;46.30
38464;DHT22;24243;51.956;5.902;2023-04-21T02:26:22;18.90;46.30
38464;DHT22;24243;51.956;5.902;2023-04-21T02:28:48;18.90;46.30
38464;DHT22;24243;51.956;5.902;2023-04-21T02:31:18;18.80;46.30
38464;DHT22;24243;51.956;5.902;2023-04-21T02:33:44;18.90;46.40
38464;DHT22;24243;51.956;5.902;2023-04-21T02:36:10;18.90;46.30
38464;DHT22;24243;51.956;5.902;2023-04-21T02:38:35;18.80;46.30
38464;DHT22;24243;51.956;5.902;2023-04-21T02:41:01;18.80;46.30
38464;DHT22;24243;51.956;5.902;2023-04-21T02:43:27;18.80;46.40
38464;DHT22;24243;51.956;5.902;2023-04-21T02:45:53;18.80;46.40
38464;DHT22;24243;51.956;5.902;2023-04-21T02:48:18;18.80;46.40
38464;DHT22;24243;51.956;5.902;2023-04-21T02:50:51;18.80;46.40
38464;DHT22;24243;51.956;5.902;2023-04-21T02:53:18;18.80;46.40
38464;DHT22;24243;51.956;5.902;2023-04-21T02:55:44;18.80;46.40
38464;DHT22;24243;51.956;5.902;2023-04-21T02:58:10;18.80;46.40
38464;DHT22;24243;51.956;5.902;2023-04-21T03:00:35;18.80;46.40
38464;DHT22;24243;51.956;5.902;2023-04-21T03:03:02;18.80;46.40
38464;DHT22;24243;51.956;5.902;2023-04-21T03:05:27;18.80;46.50
38464;DHT22;24243;51.956;5.902;2023-04-21T03:07:53;18.80;46.50
38464;DHT22;24243;51.956;5.902;2023-04-21T03:10:19;18.80;46.50
38464;DHT22;24243;51.956;5.902;2023-04-21T03:12:45;18.80;46.50
38464;DHT22;24243;51.956;5.902;2023-04-21T03:15:11;18.80;46.50
38464;DHT22;24243;51.956;5.902;2023-04-21T03:17:39;18.80;46.50
38464;DHT22;24243;51.956;5.902;2023-04-21T03:20:06;18.80;46.50
38464;DHT22;24243;51.956;5.902;2023-04-21T03:22:34;18.80;46.50
38464;DHT22;24243;51.956;5.902;2023-04-21T03:25:00;18.80;46.50
38464;DHT22;24243;51.956;5.902;2023-04-21T03:27:26;18.80;46.50
38464;DHT22;24243;51.956;5.902;2023-04-21T03:29:52;18.70;46.50
38464;DHT22;24243;51.956;5.902;2023-04-21T03:32:18;18.80;46.60
38464;DHT22;24243;51.956;5.902;2023-04-21T03:34:43;18.80;46.60
38464;DHT22;24243;51.956;5.902;2023-04-21T03:37:09;18.80;46.60
38464;DHT22;24243;51.956;5.902;2023-04-21T03:39:35;18.80;46.60
38464;DHT22;24243;51.956;5.902;2023-04-21T03:42:00;18.70;46.60
38464;DHT22;24243;51.956;5.902;2023-04-21T03:44:26;18.80;46.60
38464;DHT22;24243;51.956;5.902;2023-04-21T03:46:53;18.80;46.60
38464;DHT22;24243;51.956;5.902;2023-04-21T03:49:20;18.80;46.60
38464;DHT22;24243;51.956;5.902;2023-04-21T03:51:45;18.80;46.60
38464;DHT22;24243;51.956;5.902;2023-04-21T03:54:11;18.80;46.60
38464;DHT22;24243;51.956;5.902;2023-04-21T03:56:37;18.70;46.60
38464;DHT22;24243;51.956;5.902;2023-04-21T03:59:03;18.80;46.70
38464;DHT22;24243;51.956;5.902;2023-04-21T04:01:29;18.70;46.60
38464;DHT22;24243;51.956;5.902;2023-04-21T04:03:55;18.70;46.60
38464;DHT22;24243;51.956;5.902;2023-04-21T04:06:21;18.70;46.60
38464;DHT22;24243;51.956;5.902;2023-04-21T04:08:46;18.70;46.60
38464;DHT22;24243;51.956;5.902;2023-04-21T04:11:12;18.70;46.60
38464;DHT22;24243;51.956;5.902;2023-04-21T04:13:38;18.80;46.70
38464;DHT22;24243;51.956;5.902;2023-04-21T04:16:04;18.70;46.60
38464;DHT22;24243;51.956;5.902;2023-04-21T04:18:30;18.70;46.70
38464;DHT22;24243;51.956;5.902;2023-04-21T04:20:55;18.70;46.70
38464;DHT22;24243;51.956;5.902;2023-04-21T04:23:21;18.70;46.70
38464;DHT22;24243;51.956;5.902;2023-04-21T04:25:47;18.80;46.70
38464;DHT22;24243;51.956;5.902;2023-04-21T04:28:13;18.70;46.70
38464;DHT22;24243;51.956;5.902;2023-04-21T04:30:40;18.80;46.70
38464;DHT22;24243;51.956;5.902;2023-04-21T04:33:06;18.80;46.70
38464;DHT22;24243;51.956;5.902;2023-04-21T04:35:31;18.80;46.70
38464;DHT22;24243;51.956;5.902;2023-04-21T04:37:57;18.80;46.80
38464;DHT22;24243;51.956;5.902;2023-04-21T04:40:24;18.80;46.90
38464;DHT22;24243;51.956;5.902;2023-04-21T04:42:49;18.80;47.00
38464;DHT22;24243;51.956;5.902;2023-04-21T04:45:16;18.80;47.00
38464;DHT22;24243;51.956;5.902;2023-04-21T04:47:41;18.80;47.10
38464;DHT22;24243;51.956;5.902;2023-04-21T04:50:08;18.80;47.10
38464;DHT22;24243;51.956;5.902;2023-04-21T04:52:34;18.80;47.10
38464;DHT22;24243;51.956;5.902;2023-04-21T04:54:59;18.80;47.10
38464;DHT22;24243;51.956;5.902;2023-04-21T04:57:25;18.80;47.10
38464;DHT22;24243;51.956;5.902;2023-04-21T04:59:54;18.80;47.20
38464;DHT22;24243;51.956;5.902;2023-04-21T05:02:21;18.80;47.20
38464;DHT22;24243;51.956;5.902;2023-04-21T05:04:49;18.80;47.20
38464;DHT22;24243;51.956;5.902;2023-04-21T05:07:15;18.80;47.20
38464;DHT22;24243;51.956;5.902;2023-04-21T05:09:40;18.80;47.20
38464;DHT22;24243;51.956;5.902;2023-04-21T05:12:06;18.80;47.20
38464;DHT22;24243;51.956;5.902;2023-04-21T05:14:32;18.80;47.30
38464;DHT22;24243;51.956;5.902;2023-04-21T05:16:58;18.80;47.30
38464;DHT22;24243;51.956;5.902;2023-04-21T05:19:23;18.80;47.30
38464;DHT22;24243;51.956;5.902;2023-04-21T05:21:50;18.80;47.30
38464;DHT22;24243;51.956;5.902;2023-04-21T05:24:16;18.90;47.30
38464;DHT22;24243;51.956;5.902;2023-04-21T05:26:47;18.90;47.40
38464;DHT22;24243;51.956;5.902;2023-04-21T05:29:13;18.90;47.30
38464;DHT22;24243;51.956;5.902;2023-04-21T05:31:39;18.90;47.30
38464;DHT22;24243;51.956;5.902;2023-04-21T05:34:05;18.90;47.30
38464;DHT22;24243;51.956;5.902;2023-04-21T05:36:30;18.90;47.30
38464;DHT22;24243;51.956;5.902;2023-04-21T05:38:57;18.90;47.40
38464;DHT22;24243;51.956;5.902;2023-04-21T05:41:22;18.90;47.40
38464;DHT22;24243;51.956;5.902;2023-04-21T05:43:48;18.90;47.40
38464;DHT22;24243;51.956;5.902;2023-04-21T05:46:14;18.90;47.40
38464;DHT22;24243;51.956;5.902;2023-04-21T05:48:39;18.90;47.40
38464;DHT22;24243;51.956;5.902;2023-04-21T05:51:12;18.90;47.40
38464;DHT22;24243;51.956;5.902;2023-04-21T05:53:40;18.90;47.50
38464;DHT22;24243;51.956;5.902;2023-04-21T05:56:08;18.90;47.50
38464;DHT22;24243;51.956;5.902;2023-04-21T05:58:34;18.90;47.50
38464;DHT22;24243;51.956;5.902;2023-04-21T06:01:00;18.90;47.50
38464;DHT22;24243;51.956;5.902;2023-04-21T06:03:26;18.90;47.50
38464;DHT22;24243;51.956;5.902;2023-04-21T06:05:56;18.90;47.40
38464;DHT22;24243;51.956;5.902;2023-04-21T06:08:22;18.90;47.40
38464;DHT22;24243;51.956;5.902;2023-04-21T06:10:48;18.90;47.50
38464;DHT22;24243;51.956;5.902;2023-04-21T06:13:14;18.90;47.40
38464;DHT22;24243;51.956;5.902;2023-04-21T06:15:39;18.90;47.40
38464;DHT22;24243;51.956;5.902;2023-04-21T06:18:05;18.90;47.40
38464;DHT22;24243;51.956;5.902;2023-04-21T06:20:31;18.90;48.00
38464;DHT22;24243;51.956;5.902;2023-04-21T06:22:56;18.90;47.40
38464;DHT22;24243;51.956;5.902;2023-04-21T06:25:22;18.90;47.40
38464;DHT22;24243;51.956;5.902;2023-04-21T06:27:48;18.90;47.40
38464;DHT22;24243;51.956;5.902;2023-04-21T06:30:15;18.90;47.40
38464;DHT22;24243;51.956;5.902;2023-04-21T06:32:42;18.90;47.30
38464;DHT22;24243;51.956;5.902;2023-04-21T06:35:10;19.00;47.30
38464;DHT22;24243;51.956;5.902;2023-04-21T06:37:36;19.10;47.30
38464;DHT22;24243;51.956;5.902;2023-04-21T06:40:02;19.20;47.10
38464;DHT22;24243;51.956;5.902;2023-04-21T06:42:28;19.40;46.80
38464;DHT22;24243;51.956;5.902;2023-04-21T06:44:54;19.70;46.60
38464;DHT22;24243;51.956;5.902;2023-04-21T06:47:21;20.00;46.30
38464;DHT22;24243;51.956;5.902;2023-04-21T06:49:46;20.40;45.80
38464;DHT22;24243;51.956;5.902;2023-04-21T06:52:12;20.70;45.30
38464;DHT22;24243;51.956;5.902;2023-04-21T06:54:38;20.90;45.00
38464;DHT22;24243;51.956;5.902;2023-04-21T06:57:04;21.00;44.90
38464;DHT22;24243;51.956;5.902;2023-04-21T06:59:31;21.00;44.80
38464;DHT22;24243;51.956;5.902;2023-04-21T07:01:57;21.00;44.70
38464;DHT22;24243;51.956;5.902;2023-04-21T07:04:23;20.90;44.90
38464;DHT22;24243;51.956;5.902;2023-04-21T07:06:48;20.80;45.10
38464;DHT22;24243;51.956;5.902;2023-04-21T07:09:14;20.60;45.40
38464;DHT22;24243;51.956;5.902;2023-04-21T07:11:40;20.50;45.70
38464;DHT22;24243;51.956;5.902;2023-04-21T07:14:06;20.40;45.80
38464;DHT22;24243;51.956;5.902;2023-04-21T07:16:32;20.30;46.00
38464;DHT22;24243;51.956;5.902;2023-04-21T07:18:57;20.30;46.10
38464;DHT22;24243;51.956;5.902;2023-04-21T07:21:23;20.20;46.20
38464;DHT22;24243;51.956;5.902;2023-04-21T07:23:49;20.10;46.90
38464;DHT22;24243;51.956;5.902;2023-04-21T07:26:15;20.10;46.40
38464;DHT22;24243;51.956;5.902;2023-04-21T07:28:42;20.10;46.50
38464;DHT22;24243;51.956;5.902;2023-04-21T07:31:08;20.00;46.50
38464;DHT22;24243;51.956;5.902;2023-04-21T07:33:33;20.00;46.50
38464;DHT22;24243;51.956;5.902;2023-04-21T07:35:59;20.00;46.50
38464;DHT22;24243;51.956;5.902;2023-04-21T07:38:25;20.00;46.60
38464;DHT22;24243;51.956;5.902;2023-04-21T07:40:51;20.00;46.60
38464;DHT22;24243;51.956;5.902;2023-04-21T07:43:17;19.90;46.70
38464;DHT22;24243;51.956;5.902;2023-04-21T07:45:44;19.90;46.80
38464;DHT22;24243;51.956;5.902;2023-04-21T07:48:10;19.90;46.80
38464;DHT22;24243;51.956;5.902;2023-04-21T07:50:35;19.90;47.50
38464;DHT22;24243;51.956;5.902;2023-04-21T07:53:01;19.90;46.90
38464;DHT22;24243;51.956;5.902;2023-04-21T07:55:28;19.90;46.90
38464;DHT22;24243;51.956;5.902;2023-04-21T07:57:53;19.90;46.90
38464;DHT22;24243;51.956;5.902;2023-04-21T08:00:20;20.00;46.80
38464;DHT22;24243;51.956;5.902;2023-04-21T08:02:46;20.10;46.70
38464;DHT22;24243;51.956;5.902;2023-04-21T08:05:12;20.20;46.60
38464;DHT22;24243;51.956;5.902;2023-04-21T08:07:37;20.20;46.50
38464;DHT22;24243;51.956;5.902;2023-04-21T08:10:05;20.30;46.40
38464;DHT22;24243;51.956;5.902;2023-04-21T08:12:31;20.40;46.30
38464;DHT22;24243;51.956;5.902;2023-04-21T08:14:56;20.50;46.10
38464;DHT22;24243;51.956;5.902;2023-04-21T08:17:22;20.60;45.90
38464;DHT22;24243;51.956;5.902;2023-04-21T08:19:48;20.80;45.80
38464;DHT22;24243;51.956;5.902;2023-04-21T08:22:14;21.00;45.60
38464;DHT22;24243;51.956;5.902;2023-04-21T08:24:39;21.00;45.40
38464;DHT22;24243;51.956;5.902;2023-04-21T08:27:05;21.00;45.40
38464;DHT22;24243;51.956;5.902;2023-04-21T08:29:31;21.00;45.30
38464;DHT22;24243;51.956;5.902;2023-04-21T08:31:57;21.10;45.40
38464;DHT22;24243;51.956;5.902;2023-04-21T08:34:22;21.20;46.00
38464;DHT22;24243;51.956;5.902;2023-04-21T08:36:48;21.20;45.40
38464;DHT22;24243;51.956;5.902;2023-04-21T08:39:14;21.10;45.50
38464;DHT22;24243;51.956;5.902;2023-04-21T08:41:41;21.00;45.80
38464;DHT22;24243;51.956;5.902;2023-04-21T08:44:08;20.90;46.00
38464;DHT22;24243;51.956;5.902;2023-04-21T08:46:36;20.80;46.40
38464;DHT22;24243;51.956;5.902;2023-04-21T08:49:02;20.80;46.70
38464;DHT22;24243;51.956;5.902;2023-04-21T08:51:28;20.80;46.80
38464;DHT22;24243;51.956;5.902;2023-04-21T08:53:55;20.80;46.80
38464;DHT22;24243;51.956;5.902;2023-04-21T08:56:20;20.90;46.80
38464;DHT22;24243;51.956;5.902;2023-04-21T08:58:46;21.00;46.60
38464;DHT22;24243;51.956;5.902;2023-04-21T09:01:12;21.00;46.50
38464;DHT22;24243;51.956;5.902;2023-04-21T09:03:38;21.00;46.40
38464;DHT22;24243;51.956;5.902;2023-04-21T09:06:05;21.00;46.40
38464;DHT22;24243;51.956;5.902;2023-04-21T09:08:36;20.90;46.40
38464;DHT22;24243;51.956;5.902;2023-04-21T09:11:02;20.90;46.40
38464;DHT22;24243;51.956;5.902;2023-04-21T09:13:30;20.80;46.50
38464;DHT22;24243;51.956;5.902;2023-04-21T09:15:56;20.80;46.50
38464;DHT22;24243;51.956;5.902;2023-04-21T09:18:24;20.80;46.60
38464;DHT22;24243;51.956;5.902;2023-04-21T09:21:03;20.80;46.60
38464;DHT22;24243;51.956;5.902;2023-04-21T09:23:30;20.80;46.70
38464;DHT22;24243;51.956;5.902;2023-04-21T09:25:55;20.80;46.70
38464;DHT22;24243;51.956;5.902;2023-04-21T09:28:21;20.80;46.70
38464;DHT22;24243;51.956;5.902;2023-04-21T09:30:54;20.80;46.70
38464;DHT22;24243;51.956;5.902;2023-04-21T09:33:20;20.70;46.60
38464;DHT22;24243;51.956;5.902;2023-04-21T09:35:45;20.70;46.70
38464;DHT22;24243;51.956;5.902;2023-04-21T09:38:12;20.70;46.80
38464;DHT22;24243;51.956;5.902;2023-04-21T09:40:38;20.70;46.90
38464;DHT22;24243;51.956;5.902;2023-04-21T09:43:05;20.60;46.90
38464;DHT22;24243;51.956;5.902;2023-04-21T09:45:31;20.60;47.00
38464;DHT22;24243;51.956;5.902;2023-04-21T09:47:59;20.60;47.00
38464;DHT22;24243;51.956;5.902;2023-04-21T09:50:27;20.60;47.00
38464;DHT22;24243;51.956;5.902;2023-04-21T09:52:55;20.60;47.00
38464;DHT22;24243;51.956;5.902;2023-04-21T09:55:29;20.60;47.00
38464;DHT22;24243;51.956;5.902;2023-04-21T09:57:58;20.60;47.00
38464;DHT22;24243;51.956;5.902;2023-04-21T10:00:28;20.60;46.90
38464;DHT22;24243;51.956;5.902;2023-04-21T10:02:54;20.70;46.90
38464;DHT22;24243;51.956;5.902;2023-04-21T10:05:21;20.70;46.90
38464;DHT22;24243;51.956;5.902;2023-04-21T10:07:47;20.70;46.80
38464;DHT22;24243;51.956;5.902;2023-04-21T10:10:25;20.70;46.80
38464;DHT22;24243;51.956;5.902;2023-04-21T10:12:52;20.70;46.80
38464;DHT22;24243;51.956;5.902;2023-04-21T10:21:07;20.70;46.70
38464;DHT22;24243;51.956;5.902;2023-04-21T10:23:43;20.70;46.80
38464;DHT22;24243;51.956;5.902;2023-04-21T10:26:21;20.70;46.80
38464;DHT22;24243;51.956;5.902;2023-04-21T10:31:32;20.80;46.80
38464;DHT22;24243;51.956;5.902;2023-04-21T10:36:34;20.80;46.70
38464;DHT22;24243;51.956;5.902;2023-04-21T10:39:06;20.90;46.60
38464;DHT22;24243;51.956;5.902;2023-04-21T10:41:34;20.90;46.50
38464;DHT22;24243;51.956;5.902;2023-04-21T10:46:36;20.90;46.50
38464;DHT22;24243;51.956;5.902;2023-04-21T10:54:26;20.90;46.50
38464;DHT22;24243;51.956;5.902;2023-04-21T10:56:53;20.90;46.50
38464;DHT22;24243;51.956;5.902;2023-04-21T10:59:20;20.80;47.10
38464;DHT22;24243;51.956;5.902;2023-04-21T11:01:46;20.80;46.50
38464;DHT22;24243;51.956;5.902;2023-04-21T11:04:19;20.80;46.50
38464;DHT22;24243;51.956;5.902;2023-04-21T11:07:08;20.80;46.60
38464;DHT22;24243;51.956;5.902;2023-04-21T11:09:35;20.80;46.60
38464;DHT22;24243;51.956;5.902;2023-04-21T11:12:12;20.70;46.70
38464;DHT22;24243;51.956;5.902;2023-04-21T11:14:39;20.70;46.80
38464;DHT22;24243;51.956;5.902;2023-04-21T11:17:10;20.80;47.00
38464;DHT22;24243;51.956;5.902;2023-04-21T11:19:37;20.70;47.10
38464;DHT22;24243;51.956;5.902;2023-04-21T11:22:03;20.80;47.10
38464;DHT22;24243;51.956;5.902;2023-04-21T11:24:30;20.80;47.20
38464;DHT22;24243;51.956;5.902;2023-04-21T11:26:57;20.80;47.20
38464;DHT22;24243;51.956;5.902;2023-04-21T11:29:23;20.90;47.20
38464;DHT22;24243;51.956;5.902;2023-04-21T11:31:49;20.90;47.20
38464;DHT22;24243;51.956;5.902;2023-04-21T11:34:15;20.90;47.10
38464;DHT22;24243;51.956;5.902;2023-04-21T11:36:45;20.90;47.10
38464;DHT22;24243;51.956;5.902;2023-04-21T11:39:13;20.90;47.10
38464;DHT22;24243;51.956;5.902;2023-04-21T11:41:47;20.90;47.00
38464;DHT22;24243;51.956;5.902;2023-04-21T11:44:33;20.90;47.00
38464;DHT22;24243;51.956;5.902;2023-04-21T11:46:59;20.90;47.00
38464;DHT22;24243;51.956;5.902;2023-04-21T11:49:46;20.90;47.00
38464;DHT22;24243;51.956;5.902;2023-04-21T11:52:25;20.90;47.00
38464;DHT22;24243;51.956;5.902;2023-04-21T11:54:58;20.90;47.00
38464;DHT22;24243;51.956;5.902;2023-04-21T11:57:24;20.90;47.00
38464;DHT22;24243;51.956;5.902;2023-04-21T11:59:51;20.90;47.00
38464;DHT22;24243;51.956;5.902;2023-04-21T12:02:25;20.90;47.00
38464;DHT22;24243;51.956;5.902;2023-04-21T12:05:08;20.80;47.00
38464;DHT22;24243;51.956;5.902;2023-04-21T12:07:37;20.80;47.00
38464;DHT22;24243;51.956;5.902;2023-04-21T12:10:19;20.80;47.00
38464;DHT22;24243;51.956;5.902;2023-04-21T12:12:46;20.80;47.00
38464;DHT22;24243;51.956;5.902;2023-04-21T12:15:17;20.80;47.00
38464;DHT22;24243;51.956;5.902;2023-04-21T12:17:51;20.80;47.00
38464;DHT22;24243;51.956;5.902;2023-04-21T12:20:22;20.80;47.00
38464;DHT22;24243;51.956;5.902;2023-04-21T12:22:48;20.80;46.90
38464;DHT22;24243;51.956;5.902;2023-04-21T12:25:14;20.80;46.90
38464;DHT22;24243;51.956;5.902;2023-04-21T12:27:50;20.90;46.90
38464;DHT22;24243;51.956;5.902;2023-04-21T12:30:17;20.90;46.90
38464;DHT22;24243;51.956;5.902;2023-04-21T12:32:43;20.90;46.90
38464;DHT22;24243;51.956;5.902;2023-04-21T12:35:09;20.90;46.90
38464;DHT22;24243;51.956;5.902;2023-04-21T12:37:35;20.90;46.90
38464;DHT22;24243;51.956;5.902;2023-04-21T12:40:01;20.80;46.80
38464;DHT22;24243;51.956;5.902;2023-04-21T12:42:27;20.80;46.90
38464;DHT22;24243;51.956;5.902;2023-04-21T12:44:53;20.90;47.00
38464;DHT22;24243;51.956;5.902;2023-04-21T12:47:19;20.80;46.90
38464;DHT22;24243;51.956;5.902;2023-04-21T12:49:45;20.90;47.00
38464;DHT22;24243;51.956;5.902;2023-04-21T12:52:11;20.90;47.00
38464;DHT22;24243;51.956;5.902;2023-04-21T12:54:36;20.90;47.00
38464;DHT22;24243;51.956;5.902;2023-04-21T12:57:02;20.90;47.00
38464;DHT22;24243;51.956;5.902;2023-04-21T12:59:28;20.80;47.00
38464;DHT22;24243;51.956;5.902;2023-04-21T13:01:54;20.90;47.00
38464;DHT22;24243;51.956;5.902;2023-04-21T13:04:20;20.90;47.00
38464;DHT22;24243;51.956;5.902;2023-04-21T13:06:46;20.90;47.10
38464;DHT22;24243;51.956;5.902;2023-04-21T13:09:11;20.90;47.10
38464;DHT22;24243;51.956;5.902;2023-04-21T13:11:37;20.90;47.10
38464;DHT22;24243;51.956;5.902;2023-04-21T13:14:03;20.90;47.10
38464;DHT22;24243;51.956;5.902;2023-04-21T13:16:29;20.90;47.10
38464;DHT22;24243;51.956;5.902;2023-04-21T13:18:55;20.90;47.00
38464;DHT22;24243;51.956;5.902;2023-04-21T13:21:21;20.90;47.10
38464;DHT22;24243;51.956;5.902;2023-04-21T13:23:47;20.90;47.10
38464;DHT22;24243;51.956;5.902;2023-04-21T13:26:13;20.90;47.70
38464;DHT22;24243;51.956;5.902;2023-04-21T13:28:38;21.00;47.10
38464;DHT22;24243;51.956;5.902;2023-04-21T13:31:04;20.90;47.10
38464;DHT22;24243;51.956;5.902;2023-04-21T13:33:31;21.00;47.10
38464;DHT22;24243;51.956;5.902;2023-04-21T13:36:00;21.00;47.10
38464;DHT22;24243;51.956;5.902;2023-04-21T13:38:27;21.00;47.10
38464;DHT22;24243;51.956;5.902;2023-04-21T13:40:52;21.00;47.10
38464;DHT22;24243;51.956;5.902;2023-04-21T13:43:18;21.00;47.10
38464;DHT22;24243;51.956;5.902;2023-04-21T13:45:44;21.00;47.00
38464;DHT22;24243;51.956;5.902;2023-04-21T13:48:12;21.00;47.00
38464;DHT22;24243;51.956;5.902;2023-04-21T13:50:38;21.00;47.70
38464;DHT22;24243;51.956;5.902;2023-04-21T13:53:04;21.00;47.00
38464;DHT22;24243;51.956;5.902;2023-04-21T13:55:30;21.00;47.10
38464;DHT22;24243;51.956;5.902;2023-04-21T13:57:57;21.00;47.10
38464;DHT22;24243;51.956;5.902;2023-04-21T14:00:23;21.00;47.10
38464;DHT22;24243;51.956;5.902;2023-04-21T14:02:48;21.00;47.10
38464;DHT22;24243;51.956;5.902;2023-04-21T14:05:14;21.00;47.00
38464;DHT22;24243;51.956;5.902;2023-04-21T14:07:41;21.00;47.00
38464;DHT22;24243;51.956;5.902;2023-04-21T14:10:07;21.10;47.00
38464;DHT22;24243;51.956;5.902;2023-04-21T14:12:33;21.00;47.00
38464;DHT22;24243;51.956;5.902;2023-04-21T14:14:59;21.00;47.00
38464;DHT22;24243;51.956;5.902;2023-04-21T14:17:25;21.10;47.00
38464;DHT22;24243;51.956;5.902;2023-04-21T14:19:51;21.10;47.00
38464;DHT22;24243;51.956;5.902;2023-04-21T14:22:17;21.10;47.00
38464;DHT22;24243;51.956;5.902;2023-04-21T14:24:44;21.10;47.00
38464;DHT22;24243;51.956;5.902;2023-04-21T14:27:09;21.10;47.00
38464;DHT22;24243;51.956;5.902;2023-04-21T14:29:35;21.10;47.10
38464;DHT22;24243;51.956;5.902;2023-04-21T14:32:01;21.10;47.20
38464;DHT22;24243;51.956;5.902;2023-04-21T14:34:26;21.10;47.20
38464;DHT22;24243;51.956;5.902;2023-04-21T14:36:52;21.10;47.20
38464;DHT22;24243;51.956;5.902;2023-04-21T14:39:18;21.10;47.20
38464;DHT22;24243;51.956;5.902;2023-04-21T14:41:44;21.10;47.30
38464;DHT22;24243;51.956;5.902;2023-04-21T14:44:10;21.10;47.30
38464;DHT22;24243;51.956;5.902;2023-04-21T14:46:36;21.10;47.20
38464;DHT22;24243;51.956;5.902;2023-04-21T14:49:03;21.10;47.20
38464;DHT22;24243;51.956;5.902;2023-04-21T14:51:29;21.10;47.20
38464;DHT22;24243;51.956;5.902;2023-04-21T14:53:56;21.20;47.50
38464;DHT22;24243;51.956;5.902;2023-04-21T14:56:22;21.10;47.20
38464;DHT22;24243;51.956;5.902;2023-04-21T14:58:47;21.10;47.20
38464;DHT22;24243;51.956;5.902;2023-04-21T15:01:13;21.10;47.30
38464;DHT22;24243;51.956;5.902;2023-04-21T15:03:39;21.10;47.30
38464;DHT22;24243;51.956;5.902;2023-04-21T15:06:05;21.10;48.00
38464;DHT22;24243;51.956;5.902;2023-04-21T15:08:31;21.20;47.50
38464;DHT22;24243;51.956;5.902;2023-04-21T15:10:57;21.10;47.60
38464;DHT22;24243;51.956;5.902;2023-04-21T15:13:22;21.20;47.60
38464;DHT22;24243;51.956;5.902;2023-04-21T15:15:48;21.20;47.70
38464;DHT22;24243;51.956;5.902;2023-04-21T15:18:16;21.20;47.70
38464;DHT22;24243;51.956;5.902;2023-04-21T15:20:43;21.20;47.70
38464;DHT22;24243;51.956;5.902;2023-04-21T15:23:10;21.10;47.60
38464;DHT22;24243;51.956;5.902;2023-04-21T15:25:36;21.20;47.60
38464;DHT22;24243;51.956;5.902;2023-04-21T15:28:02;21.10;47.60
38464;DHT22;24243;51.956;5.902;2023-04-21T15:30:28;21.10;47.60
38464;DHT22;24243;51.956;5.902;2023-04-21T15:32:53;21.10;47.60
38464;DHT22;24243;51.956;5.902;2023-04-21T15:35:19;21.10;47.60
38464;DHT22;24243;51.956;5.902;2023-04-21T15:37:45;21.10;47.60
38464;DHT22;24243;51.956;5.902;2023-04-21T15:40:11;21.10;47.60
38464;DHT22;24243;51.956;5.902;2023-04-21T15:42:37;21.10;47.60
38464;DHT22;24243;51.956;5.902;2023-04-21T15:45:02;21.10;47.60
38464;DHT22;24243;51.956;5.902;2023-04-21T15:47:28;21.10;47.60